AirNav   Air Wisconsin Up To $57,000 Bonus
 
 1173 users online  

07KY Blue Lick Airport
Louisville, Kentucky, USA

GOING TO LOUISVILLE?


FAA INFORMATION EFFECTIVE 26 MARCH 2020

Location

FAA Identifier: 07KY
Lat/Long: 38-04-50.2410N 085-41-35.8530W
38-04.837350N 085-41.597550W
38.0806225,-85.6932925
(estimated)
Elevation: 532 ft. / 162.2 m (surveyed)
Variation: 02W (1985)
From city: 9 miles SE of LOUISVILLE, KY
Time zone: UTC -4 (UTC -5 during Standard Time)
Zip code: 40229

Airport Operations

Airport use: Private use. Permission required prior to landing
Activation date: 09/1973
Control tower: no
ARTCC: INDIANAPOLIS CENTER
FSS: LOUISVILLE FLIGHT SERVICE STATION
Attendance: DAYLIGHT HOURS
Wind indicator: yes
Segmented circle: yes

Airport Communications

UNICOM: 122.8
WX ASOS at SDF (6 nm N): PHONE 502-367-1492
WX ASOS at LOU (9 nm N): PHONE 502-473-0693
WX AWOS-3 at JVY (17 nm N): 118.575 (812-246-1278)
WX AWOS-3 at BRY (18 nm SE): 119.925 (502-348-1867)

Nearby radio navigation aids

VOR radial/distance  VOR name  Freq  Var
IIUr255/5.6LOUISVILLE VORTAC114.8001E
FTKr053/16.8FORT KNOX VOR/DME109.6001W
EWOr357/26.9NEW HOPE VOR/DME110.8001E
MYSr068/(28.4)MYSTIC VOR108.2001W
FFTr264/(37.5)FRANKFORT VOR109.4003W

 
NDB name  Hdg/Dist  Freq  Var  ID
LAANG220/4.841404WLK .-.. -.-
GODMAN064/15.339603WGOI --. --- ..

Airport Services

Parking: hangars
Airframe service: NONE
Powerplant service: NONE
Bottled oxygen: NONE
Bulk oxygen: NONE

Runway Information

Runway 11/29

Dimensions: 2000 x 100 ft. / 610 x 30 m
Surface: turf
RUNWAY 11  RUNWAY 29
Traffic pattern: rightleft
Markings: NSTD, in good conditionNSTD, in good condition
Obstructions: trees, 450 ft. from runway, 25:1 slope to cleartrees, 1000 ft. from runway, 20:1 slope to clear

Airport Ownership and Management from official FAA records

Ownership: Privately-owned
Owner: THOMAS H. JEAN
1432 HILLVIEW BLVD
HILLVIEW, KY 40229
Phone 502-957-5159
ARPT RELATED CORRESPONDENCE TO ARPT MGR ONLY.
Manager: THOMAS H. JEAN
1432 HILLVIEW BLVD
HILLVIEW, KY 40229
Phone 502-957-5159

Airport Operational Statistics

Aircraft based on the field: 15
Single engine airplanes: 15
    
Aircraft operations: avg 24/week *
98% local general aviation
2% transient general aviation
* for 12-month period ending 14 December 1979

Additional Remarks

PLINES 90FT FROM RWY 29
FOR CD CTC LOUISVILLE APCH AT 502-375-7499

Instrument Procedures

There are no published instrument procedures at 07KY.

Some nearby airports with instrument procedures:

KSDF - Louisville Muhammad Ali International Airport (6 nm N)
KLOU - Bowman Field Airport (9 nm N)
KFTK - Godman Army Airfield (17 nm SW)
KJVY - Clark Regional Airport (17 nm N)
KBRY - Samuels Field Airport (18 nm SE)
 
Loc | Ops | Rwys | IFR | FBO | Links
Com | Nav | Svcs | Stats | Notes
Area around 07KY (Blue Lick Airport)
 
Road maps at: MapQuest Bing Google
 
Aerial photo
WARNING: Photo may not be current or correct
Aerial photo of 07KY (Blue Lick Airport)
Do you have a better or more recent aerial photo of Blue Lick Airport that you would like to share? If so, please send us your photo.

 
Sectional chart

 
Airport distance calculator
Flying to Blue Lick Airport? Find the distance to fly.

From to 07KY

Sunrise and sunset
Times for 30-Mar-2020
 Local
(UTC-4)
 Zulu
(UTC)
Morning civil twilight07:0411:04
Sunrise07:3011:30
Sunset20:0400:04
Evening civil twilight20:3000:30

Current date and time
Zulu (UTC)  30-Mar-2020 18:42:46
Local (UTC-4)  30-Mar-2020 14:42:46
 
METAR
KSDF 
6nm N 
301756Z 28009G23KT 10SM BKN240 18/M01 A3017 RMK AO2 SLP216 T01781011 10178 20100 58013
KLOU 
8nm N 
301753Z 30009G17KT 10SM CLR 17/00 A3017 RMK AO2 SLP215 T01720000 10172 20089 58011
KJVY 
17nm N 
301815Z AUTO 27012G16KT 10SM CLR 17/00 A3017 RMK AO2 T01740002
KFTK 
18nm SW 
301813Z AUTO 27010KT 10SM CLR 18/M01 A3016 RMK AO2 PRESFR SLP214 $
KBRY 
18nm SE 
301815Z AUTO 30006G15KT 10SM CLR 17/M01 A3015 RMK AO1
TAF
KSDF 
6nm N 
301730Z 3018/3124 30012G18KT P6SM BKN250 FM302200 34006KT P6SM OVC250 FM311000 03007KT P6SM OVC100 FM311300 04007KT P6SM VCSH OVC040 FM311600 03006KT P6SM VCSH OVC025 FM312100 35011KT P6SM OVC050
KFTK 
18nm SW 
301700Z 3017/3123 28009KT 9999 FEW250 QNH3005INS TEMPO 3017/3021 28012G18KT BECMG 3023/3024 31006KT 9999 FEW025 SCT200 QNH2995INS BECMG 3114/3115 02009KT 9999 SCT025 SCT090 QNH2993INS BECMG 3117/3118 34009KT 9999 BKN025 QNH2988INS TX19/3020Z TN06/3113Z
NOTAMs
Click for the latest NOTAMs
NOTAMs are issued by the DoD/FAA and will open in a separate window not controlled by AirNav.

 

 
 

Would you like to see your business listed on this page?

 If your business provides an interesting product or service to pilots, flight crews, aircraft, or users of the Blue Lick Airport, you should consider listing it here.  To start the listing process, click on the button below
 
Add a business
 

Other Pages about Blue Lick Airport

Update a link
 
Copyright © AirNav, LLC. All rights reserved. Privacy Policy  Contact